Terminal Aerodrome Forecast
Issued by NWS Houston/Galveston, TX

Current Version | Previous Version | Text Only | Print | Product List | Glossary On
Versions: 1 2 3 4 5 6 7 8 9 10 11 12 13 14 15 16 17
000
FTUS44 KHGX 241700
TAFCLL
TAF
KCLL 241740Z 2418/2518 20012KT P6SM SCT025 BKN040
      TEMPO 2418/2421 BKN025
     FM242100 23010KT P6SM VCTS BKN040CB
     FM250300 36006KT P6SM FEW050 SCT250
     FM250900 00000KT 5SM BR FEW250
     FM251500 10007KT P6SM FEW250=

USA.gov is the U.S. government's official web portal to all federal, state and local government web resources and services.